Time;durP1;ratioP1;P1;durP2;ratioP2;P2;SDS_P1;SDS_P2;PMS_P1;PMS_P2;Temp;Humidity;BMP_temperature;BMP_pressure;BME280_temperature;BME280_humidity;BME280_pressure;Samples;Min_cycle;Max_cycle;Signal;HPM_P1;HPM_P2
2023/04/11 00:01:22;;;;;;;6.55;4.00;;;7.80;99.90;;;;;;4996930;28;20042;-80
2023/04/11 00:03:49;;;;;;;7.40;3.47;;;7.80;99.90;;;;;;4998333;28;20052;-78
2023/04/11 00:06:16;;;;;;;5.40;3.00;;;7.70;99.90;;;;;;4996606;28;20038;-80
2023/04/11 00:08:43;;;;;;;5.90;3.00;;;7.60;99.90;;;;;;4998472;28;20049;-81
2023/04/11 00:11:09;;;;;;;7.72;3.13;;;7.60;99.90;;;;;;4997983;28;20664;-78
2023/04/11 00:13:37;;;;;;;6.13;2.58;;;7.50;99.90;;;;;;5014425;28;20045;-78
2023/04/11 00:16:06;;;;;;;4.05;2.30;;;7.50;99.90;;;;;;5013046;28;20038;-78
2023/04/11 00:18:35;;;;;;;4.15;2.17;;;7.50;99.90;;;;;;4980756;28;20052;-80
2023/04/11 00:21:03;;;;;;;3.42;2.10;;;7.50;99.90;;;;;;4980401;28;20101;-80
2023/04/11 00:23:30;;;;;;;6.28;2.10;;;7.50;99.90;;;;;;4984068;28;20042;-79
2023/04/11 00:25:57;;;;;;;2.80;2.10;;;7.50;99.90;;;;;;5015292;28;20049;-80
2023/04/11 00:28:24;;;;;;;3.78;2.20;;;7.50;99.90;;;;;;4983010;28;20045;-78
2023/04/11 00:30:50;;;;;;;5.40;2.33;;;7.60;99.90;;;;;;5010405;28;20048;-78
2023/04/11 00:33:17;;;;;;;2.30;2.10;;;7.60;99.90;;;;;;5000715;28;20046;-79
2023/04/11 00:35:44;;;;;;;2.42;2.00;;;7.60;99.90;;;;;;4996124;28;20046;-80
2023/04/11 00:38:11;;;;;;;2.30;2.10;;;7.60;99.90;;;;;;5012876;28;20043;-80
2023/04/11 00:40:39;;;;;;;2.15;1.98;;;7.60;99.90;;;;;;5000380;28;20156;-78
2023/04/11 00:43:06;;;;;;;6.13;2.95;;;7.70;99.90;;;;;;4994875;28;20077;-78
2023/04/11 00:45:33;;;;;;;3.63;2.92;;;7.70;99.90;;;;;;5015268;28;20038;-82
2023/04/11 00:48:00;;;;;;;3.67;3.35;;;7.70;99.90;;;;;;4995332;28;20779;-79
2023/04/11 00:50:27;;;;;;;3.55;3.30;;;7.80;99.90;;;;;;4999221;28;20562;-80
2023/04/11 00:52:55;;;;;;;4.78;4.47;;;7.80;99.90;;;;;;4992657;28;20059;-78
2023/04/11 00:55:23;;;;;;;5.15;4.68;;;7.80;99.90;;;;;;5009122;28;20049;-79
2023/04/11 00:57:53;;;;;;;5.20;4.80;;;7.80;99.90;;;;;;5000569;28;20136;-80
2023/04/11 01:00:21;;;;;;;5.32;5.03;;;7.80;99.90;;;;;;5014679;28;20046;-78
2023/04/11 01:02:48;;;;;;;5.18;4.90;;;7.80;99.90;;;;;;5000097;28;20041;-78
2023/04/11 01:05:16;;;;;;;5.47;5.13;;;7.80;99.90;;;;;;5013882;28;20101;-78
2023/04/11 01:07:47;;;;;;;6.22;5.93;;;7.80;99.90;;;;;;4996822;28;20069;-77
2023/04/11 01:10:15;;;;;;;7.32;6.82;;;7.80;99.90;;;;;;4984808;28;20046;-78
2023/04/11 01:12:43;;;;;;;7.80;7.03;;;7.90;99.90;;;;;;4983738;28;20038;-79
2023/04/11 01:15:10;;;;;;;8.07;7.57;;;7.90;99.90;;;;;;5007471;28;20136;-78
2023/04/11 01:17:37;;;;;;;7.97;7.57;;;7.90;99.90;;;;;;5011738;28;20535;-78
2023/04/11 01:20:06;;;;;;;8.38;8.00;;;8.00;99.90;;;;;;4999185;28;20038;-80
2023/04/11 01:22:36;;;;;;;9.10;8.60;;;8.00;99.90;;;;;;4980716;28;20049;-77
2023/04/11 01:25:03;;;;;;;9.80;9.10;;;8.00;99.90;;;;;;5015559;28;20100;-78
2023/04/11 01:27:32;;;;;;;9.70;9.10;;;8.00;99.90;;;;;;4994701;28;20033;-79
2023/04/11 01:30:00;;;;;;;9.68;9.27;;;8.00;99.90;;;;;;5014366;28;20046;-78
2023/04/11 01:32:27;;;;;;;9.20;8.70;;;8.00;99.90;;;;;;4996095;28;20118;-78
2023/04/11 01:34:56;;;;;;;9.80;9.10;;;8.00;99.90;;;;;;4997221;28;20049;-79
2023/04/11 01:37:24;;;;;;;9.93;9.43;;;8.00;99.90;;;;;;4997402;28;20041;-78
2023/04/11 01:39:51;;;;;;;9.52;8.90;;;8.00;99.90;;;;;;4996012;28;20050;-79
2023/04/11 01:42:19;;;;;;;10.05;9.45;;;8.00;99.90;;;;;;4985115;28;20042;-78
2023/04/11 01:44:49;;;;;;;9.48;9.00;;;8.00;99.90;;;;;;5000357;28;20038;-78
2023/04/11 01:47:16;;;;;;;8.23;7.90;;;8.00;99.90;;;;;;5013794;28;20430;-80
2023/04/11 01:49:43;;;;;;;8.20;7.80;;;7.90;99.90;;;;;;4998596;28;20494;-81
2023/04/11 01:52:09;;;;;;;9.30;8.50;;;7.90;99.90;;;;;;4997386;28;20144;-78
2023/04/11 01:54:36;;;;;;;11.30;8.85;;;7.90;99.90;;;;;;5002778;28;20073;-79
2023/04/11 01:57:05;;;;;;;8.40;7.88;;;7.90;99.90;;;;;;5015362;28;20046;-78
2023/04/11 01:59:32;;;;;;;8.93;8.20;;;7.90;99.90;;;;;;4997759;28;20041;-80
2023/04/11 02:02:00;;;;;;;9.90;8.95;;;7.90;99.90;;;;;;4994016;28;20046;-79
2023/04/11 02:04:26;;;;;;;8.55;7.90;;;7.90;99.90;;;;;;4997438;28;20466;-78
2023/04/11 02:06:53;;;;;;;9.98;9.15;;;7.90;99.90;;;;;;4998082;28;20116;-80
2023/04/11 02:09:20;;;;;;;9.70;8.70;;;7.80;99.90;;;;;;4980785;28;20046;-78
2023/04/11 02:11:47;;;;;;;9.50;8.75;;;7.80;99.90;;;;;;5017822;28;20038;-80
2023/04/11 02:14:17;;;;;;;9.75;8.85;;;7.80;99.90;;;;;;4995965;28;20069;-78
2023/04/11 02:16:55;;;;;;;9.85;9.13;;;7.80;99.90;;;;;;5011544;28;20112;-78
2023/04/11 02:19:24;;;;;;;9.57;8.50;;;7.80;99.90;;;;;;4994177;28;20108;-78
2023/04/11 02:21:51;;;;;;;10.38;8.50;;;7.80;99.90;;;;;;5011136;28;20085;-78
2023/04/11 02:24:18;;;;;;;9.73;8.70;;;7.80;99.90;;;;;;4985553;28;20042;-78
2023/04/11 02:26:45;;;;;;;10.68;8.20;;;7.80;99.90;;;;;;4999317;28;20096;-80
2023/04/11 02:29:11;;;;;;;11.48;8.98;;;7.70;99.90;;;;;;5011562;28;20471;-79
2023/04/11 02:31:38;;;;;;;9.68;8.68;;;7.70;99.90;;;;;;4999046;28;20042;-78
2023/04/11 02:34:05;;;;;;;8.80;8.02;;;7.70;99.90;;;;;;4999623;28;20038;-79
2023/04/11 02:36:33;;;;;;;10.73;8.27;;;7.60;99.90;;;;;;4998047;28;20511;-78
2023/04/11 02:39:00;;;;;;;8.85;7.90;;;7.70;99.90;;;;;;5005419;28;20125;-78
2023/04/11 02:41:27;;;;;;;8.25;7.43;;;7.60;99.90;;;;;;4991639;28;21076;-80
2023/04/11 02:43:54;;;;;;;15.65;7.45;;;7.50;99.90;;;;;;5007162;28;20058;-78
2023/04/11 02:46:21;;;;;;;8.13;7.30;;;7.60;99.90;;;;;;4996834;28;20044;-77
2023/04/11 02:48:48;;;;;;;11.85;8.25;;;7.60;99.90;;;;;;5013376;28;20562;-79
2023/04/11 02:51:15;;;;;;;9.13;8.15;;;7.60;99.90;;;;;;4996228;28;20497;-77
2023/04/11 02:53:41;;;;;;;9.57;7.93;;;7.60;99.90;;;;;;5009063;28;20042;-78
2023/04/11 02:56:09;;;;;;;9.57;7.60;;;7.60;99.90;;;;;;4997278;28;20041;-81
2023/04/11 02:58:40;;;;;;;7.85;7.15;;;7.60;99.90;;;;;;5003269;28;20044;-79
2023/04/11 03:01:10;;;;;;;10.05;8.00;;;7.60;99.90;;;;;;4997489;28;20041;-78
2023/04/11 03:03:37;;;;;;;10.18;8.60;;;7.70;99.90;;;;;;5011916;28;20038;-77
2023/04/11 03:06:07;;;;;;;10.55;8.65;;;7.70;99.90;;;;;;5013455;28;20045;-79
2023/04/11 03:08:36;;;;;;;8.80;8.20;;;7.80;99.90;;;;;;5010606;28;20041;-78
2023/04/11 03:11:03;;;;;;;11.90;9.55;;;7.80;99.90;;;;;;5006894;28;20053;-80
2023/04/11 03:13:30;;;;;;;14.27;9.45;;;7.80;99.90;;;;;;4997155;28;20133;-80
2023/04/11 03:15:57;;;;;;;10.65;9.52;;;7.80;99.90;;;;;;4979679;28;20042;-77
2023/04/11 03:18:27;;;;;;;10.35;9.43;;;7.90;99.90;;;;;;4998835;28;20069;-78
2023/04/11 03:20:55;;;;;;;9.30;8.40;;;7.90;99.90;;;;;;5004132;28;20077;-78
2023/04/11 03:23:21;;;;;;;10.27;9.05;;;7.90;99.90;;;;;;4982187;28;20045;-78
2023/04/11 03:25:50;;;;;;;10.38;9.02;;;7.90;99.90;;;;;;4995716;28;20100;-78
2023/04/11 03:28:18;;;;;;;14.63;9.52;;;7.90;99.90;;;;;;4990917;28;20050;-80
2023/04/11 03:30:47;;;;;;;10.20;9.18;;;7.90;99.90;;;;;;4995870;28;20653;-79
2023/04/11 03:33:18;;;;;;;13.57;9.20;;;7.80;99.90;;;;;;4996963;28;20403;-79
2023/04/11 03:35:45;;;;;;;10.88;8.98;;;7.80;99.90;;;;;;4994988;28;20124;-78
2023/04/11 03:38:12;;;;;;;10.05;9.02;;;7.90;99.90;;;;;;4989308;28;20610;-79
2023/04/11 03:40:38;;;;;;;19.35;9.55;;;7.80;99.90;;;;;;5012984;28;20058;-79
2023/04/11 03:43:12;;;;;;;15.27;8.70;;;7.80;99.90;;;;;;5014752;28;20615;-81
2023/04/11 03:45:39;;;;;;;19.40;9.32;;;7.80;99.90;;;;;;4996497;28;20038;-79
2023/04/11 03:48:13;;;;;;;13.00;8.97;;;7.80;99.90;;;;;;4999903;28;20721;-79
2023/04/11 03:51:03;;;;;;;13.77;9.48;;;7.80;99.90;;;;;;4985896;28;20050;-80
2023/04/11 03:53:37;;;;;;;14.57;8.52;;;7.80;99.90;;;;;;4991845;28;20691;-80
2023/04/11 03:56:19;;;;;;;18.83;8.80;;;7.80;99.90;;;;;;4981208;28;20447;-80
2023/04/11 03:58:47;;;;;;;15.65;10.32;;;7.70;99.90;;;;;;5016674;28;20038;-81
2023/04/11 04:01:14;;;;;;;18.08;9.38;;;7.80;99.90;;;;;;4991452;28;20038;-79
2023/04/11 04:03:40;;;;;;;13.38;9.35;;;7.70;99.90;;;;;;5017429;28;20551;-81
2023/04/11 04:06:11;;;;;;;17.88;9.85;;;7.70;99.90;;;;;;5001963;28;20041;-81
2023/04/11 04:08:38;;;;;;;11.55;10.38;;;7.80;99.90;;;;;;4999687;28;20046;-79
2023/04/11 04:11:08;;;;;;;17.10;12.63;;;7.80;99.90;;;;;;4999494;28;20081;-77
2023/04/11 04:13:36;;;;;;;18.35;10.48;;;7.80;99.90;;;;;;4990549;28;20060;-79
2023/04/11 04:16:12;;;;;;;23.60;11.98;;;7.70;99.90;;;;;;5019947;28;20518;-80
2023/04/11 04:18:43;;;;;;;15.90;11.55;;;7.70;99.90;;;;;;4991652;28;20033;-78
2023/04/11 04:21:10;;;;;;;16.55;10.60;;;7.60;99.90;;;;;;4999415;28;20030;-80
2023/04/11 04:23:46;;;;;;;22.35;11.98;;;7.60;99.90;;;;;;4994664;28;20070;-79
2023/04/11 04:26:36;;;;;;;19.60;11.10;;;7.60;99.90;;;;;;4995384;28;20046;-79
2023/04/11 04:29:16;;;;;;;23.27;11.15;;;7.60;99.90;;;;;;5012743;28;20050;-79
2023/04/11 04:31:51;;;;;;;23.83;12.48;;;7.50;99.90;;;;;;5013850;28;20046;-79
2023/04/11 04:34:23;;;;;;;18.42;11.50;;;7.50;99.90;;;;;;4983580;28;20109;-78
2023/04/11 04:36:55;;;;;;;27.55;12.13;;;7.50;99.90;;;;;;4989129;28;20045;-78
2023/04/11 04:39:32;;;;;;;21.33;11.63;;;7.50;99.90;;;;;;4994334;28;20463;-79
2023/04/11 04:42:00;;;;;;;23.70;12.02;;;7.50;99.90;;;;;;4983444;28;20030;-78
2023/04/11 04:44:33;;;;;;;22.80;13.80;;;7.40;99.90;;;;;;4988506;28;20489;-80
2023/04/11 04:47:05;;;;;;;24.98;13.93;;;7.40;99.90;;;;;;5014858;28;20129;-79
2023/04/11 04:49:31;;;;;;;21.25;12.88;;;7.30;99.90;;;;;;5004768;28;20052;-78
2023/04/11 04:52:00;;;;;;;27.67;13.77;;;7.30;99.90;;;;;;5002656;28;20132;-79
2023/04/11 04:54:27;;;;;;;25.63;13.00;;;7.40;99.90;;;;;;5017312;28;20042;-79
2023/04/11 04:56:54;;;;;;;28.20;15.02;;;7.40;99.90;;;;;;5001007;28;20053;-78
2023/04/11 04:59:22;;;;;;;30.05;13.98;;;7.40;99.90;;;;;;4996598;28;20065;-78
2023/04/11 05:01:56;;;;;;;25.40;13.13;;;7.40;99.90;;;;;;4996780;28;20042;-79
2023/04/11 05:04:28;;;;;;;25.08;13.52;;;7.40;99.90;;;;;;5004885;28;20088;-79
2023/04/11 05:06:57;;;;;;;21.83;13.23;;;7.50;99.90;;;;;;5013626;28;20137;-80
2023/04/11 05:09:25;;;;;;;25.52;14.23;;;7.40;99.90;;;;;;4989981;28;20038;-78
2023/04/11 05:11:56;;;;;;;34.05;15.68;;;7.40;99.90;;;;;;5011274;28;20049;-78
2023/04/11 05:14:23;;;;;;;26.33;15.65;;;7.50;99.90;;;;;;4978753;28;20069;-79
2023/04/11 05:16:50;;;;;;;27.27;15.25;;;7.50;99.90;;;;;;4997046;28;20176;-78
2023/04/11 05:19:18;;;;;;;33.00;15.57;;;7.60;99.90;;;;;;5011028;28;20053;-79
2023/04/11 05:21:48;;;;;;;28.30;15.63;;;7.50;99.90;;;;;;5000638;28;20053;-78
2023/04/11 05:24:15;;;;;;;35.67;14.77;;;7.50;99.90;;;;;;4992215;28;20094;-78
2023/04/11 05:26:42;;;;;;;21.88;10.38;;;7.50;99.90;;;;;;5020135;28;20512;-79
2023/04/11 05:29:10;;;;;;;22.50;10.68;;;7.20;99.90;;;;;;5014320;28;20286;-79
2023/04/11 05:31:37;;;;;;;25.40;12.23;;;6.30;99.90;;;;;;4986254;28;20133;-79
2023/04/11 05:34:04;;;;;;;19.92;12.75;;;5.60;99.90;;;;;;4991357;28;20387;-78
2023/04/11 05:36:31;;;;;;;26.02;14.30;;;5.60;99.90;;;;;;4993989;28;20137;-78
2023/04/11 05:38:59;;;;;;;32.97;14.05;;;5.70;99.90;;;;;;5012405;28;20128;-80
2023/04/11 05:41:26;;;;;;;33.05;12.82;;;5.70;99.90;;;;;;5003367;28;20046;-78
2023/04/11 05:43:53;;;;;;;31.75;13.93;;;5.80;99.90;;;;;;4980107;28;20070;-81
2023/04/11 05:46:20;;;;;;;26.60;11.00;;;6.00;99.90;;;;;;4989067;28;20038;-80
2023/04/11 05:48:47;;;;;;;26.15;10.38;;;6.20;99.90;;;;;;4979602;28;20042;-79
2023/04/11 05:51:14;;;;;;;28.48;10.73;;;6.40;99.90;;;;;;4986698;28;20141;-80
2023/04/11 05:53:41;;;;;;;25.65;11.07;;;6.50;99.90;;;;;;5006362;28;20046;-78
2023/04/11 05:56:08;;;;;;;18.60;9.85;;;6.60;99.90;;;;;;4998769;28;20048;-78
2023/04/11 05:58:36;;;;;;;25.35;11.18;;;6.60;99.90;;;;;;4990212;28;20042;-79
2023/04/11 06:01:04;;;;;;;16.45;8.88;;;6.70;99.90;;;;;;4979087;28;20402;-80
2023/04/11 06:03:30;;;;;;;22.25;8.43;;;6.50;99.90;;;;;;4999885;28;20475;-79
2023/04/11 06:05:59;;;;;;;14.40;5.25;;;6.30;99.90;;;;;;4983175;28;20073;-80
2023/04/11 06:08:26;;;;;;;9.45;4.18;;;6.10;99.90;;;;;;4996844;28;20046;-79
2023/04/11 06:10:53;;;;;;;9.15;4.82;;;5.90;99.90;;;;;;4992632;28;20058;-78
2023/04/11 06:13:19;;;;;;;9.75;5.20;;;5.90;99.90;;;;;;5013011;28;20054;-79
2023/04/11 06:15:46;;;;;;;12.85;7.60;;;5.80;99.90;;;;;;4999132;28;20038;-79
2023/04/11 06:18:13;;;;;;;9.65;7.43;;;5.80;99.90;;;;;;4991627;28;20096;-80
2023/04/11 06:20:40;;;;;;;19.67;8.90;;;5.80;99.90;;;;;;4998717;28;20067;-79
2023/04/11 06:23:06;;;;;;;16.60;8.90;;;5.80;99.90;;;;;;4999060;28;20073;-79
2023/04/11 06:25:33;;;;;;;16.40;9.10;;;5.90;99.90;;;;;;4995998;28;20399;-80
2023/04/11 06:28:00;;;;;;;11.38;8.75;;;5.90;99.90;;;;;;4998144;28;20618;-79
2023/04/11 06:30:27;;;;;;;21.00;8.18;;;5.90;99.90;;;;;;4994585;28;20049;-82
2023/04/11 06:32:55;;;;;;;18.90;10.32;;;5.90;99.90;;;;;;4984066;28;20113;-80
2023/04/11 06:35:23;;;;;;;17.80;10.23;;;5.90;99.90;;;;;;5012708;28;20049;-80
2023/04/11 06:37:51;;;;;;;21.90;12.02;;;5.90;99.90;;;;;;5003524;28;20041;-79
2023/04/11 06:40:19;;;;;;;26.98;10.68;;;6.10;99.90;;;;;;5015940;28;20132;-80
2023/04/11 06:42:46;;;;;;;25.35;11.80;;;6.20;99.90;;;;;;5003177;28;20045;-81
2023/04/11 06:45:14;;;;;;;34.35;12.93;;;6.30;99.90;;;;;;4989064;28;20049;-81
2023/04/11 06:47:40;;;;;;;30.42;12.15;;;6.40;99.90;;;;;;5009592;28;20050;-79
2023/04/11 06:50:08;;;;;;;36.38;13.80;;;6.50;99.90;;;;;;5016179;28;20046;-80
2023/04/11 06:52:34;;;;;;;32.72;12.82;;;6.70;99.90;;;;;;5000515;28;20065;-79
2023/04/11 06:55:01;;;;;;;36.95;11.82;;;6.80;99.90;;;;;;5009516;28;20140;-81
2023/04/11 06:57:28;;;;;;;37.88;12.38;;;6.80;99.90;;;;;;4997826;28;20745;-83
2023/04/11 06:59:54;;;;;;;35.50;12.88;;;6.90;99.90;;;;;;4981566;28;20042;-80
2023/04/11 07:02:23;;;;;;;34.55;12.80;;;7.00;99.90;;;;;;5001003;28;20610;-80
2023/04/11 07:04:51;;;;;;;26.67;11.02;;;7.20;99.90;;;;;;4999373;28;20099;-81
2023/04/11 07:07:18;;;;;;;32.40;13.73;;;7.40;99.90;;;;;;4989868;28;20088;-78
2023/04/11 07:09:46;;;;;;;28.55;13.70;;;7.50;99.90;;;;;;5012679;28;20041;-80
2023/04/11 07:12:13;;;;;;;32.85;15.48;;;7.60;99.90;;;;;;4986250;28;20114;-79
2023/04/11 07:14:39;;;;;;;28.80;14.45;;;7.60;99.90;;;;;;4995369;28;20041;-82
2023/04/11 07:17:09;;;;;;;33.47;16.13;;;7.60;99.90;;;;;;4981975;28;20057;-78
2023/04/11 07:19:36;;;;;;;32.63;16.58;;;7.60;99.90;;;;;;4996550;28;20044;-80
2023/04/11 07:22:03;;;;;;;32.22;15.07;;;7.60;99.90;;;;;;4996042;28;20045;-80
2023/04/11 07:24:30;;;;;;;34.97;14.73;;;7.60;99.90;;;;;;4994576;28;20043;-79
2023/04/11 07:27:00;;;;;;;30.23;16.35;;;7.60;99.90;;;;;;5000862;28;20090;-77
2023/04/11 07:29:27;;;;;;;23.02;16.08;;;7.60;99.90;;;;;;4999761;28;20050;-77
2023/04/11 07:31:54;;;;;;;26.92;16.73;;;7.70;99.90;;;;;;4987360;28;20052;-80
2023/04/11 07:34:21;;;;;;;19.40;17.20;;;7.70;99.90;;;;;;5017168;28;20057;-82
2023/04/11 07:36:49;;;;;;;25.25;17.15;;;7.80;99.90;;;;;;5000753;28;20066;-78
2023/04/11 07:39:15;;;;;;;21.35;16.70;;;7.70;99.90;;;;;;5003446;28;20030;-77
2023/04/11 07:41:43;;;;;;;23.95;16.13;;;7.70;99.90;;;;;;4989737;28;20050;-82
2023/04/11 07:44:10;;;;;;;21.83;16.27;;;7.90;99.90;;;;;;5004567;28;20041;-80
2023/04/11 07:46:36;;;;;;;18.33;16.48;;;7.90;99.90;;;;;;4996806;28;20042;-77
2023/04/11 07:49:03;;;;;;;17.55;15.75;;;7.80;99.90;;;;;;5015055;28;20168;-81
2023/04/11 07:51:30;;;;;;;19.98;15.60;;;7.70;99.90;;;;;;4996469;28;20434;-78
2023/04/11 07:53:56;;;;;;;23.13;17.45;;;7.60;99.90;;;;;;4987343;28;20470;-80
2023/04/11 07:56:23;;;;;;;17.88;16.08;;;7.60;99.90;;;;;;4997299;28;21976;-78
2023/04/11 07:58:50;;;;;;;30.08;17.95;;;7.60;99.90;;;;;;5001746;28;20073;-80
2023/04/11 08:01:21;;;;;;;24.20;16.73;;;7.80;99.90;;;;;;5010725;28;20038;-81
2023/04/11 08:03:49;;;;;;;23.02;19.50;;;8.00;99.90;;;;;;5000493;28;20073;-80
2023/04/11 08:06:15;;;;;;;23.35;21.02;;;8.30;99.90;;;;;;5006556;28;20092;-78
2023/04/11 08:08:43;;;;;;;27.77;20.83;;;8.30;99.90;;;;;;5000440;28;20072;-81
2023/04/11 08:11:09;;;;;;;24.75;22.00;;;8.40;99.90;;;;;;5000827;28;20044;-80
2023/04/11 08:13:36;;;;;;;23.95;21.95;;;8.30;99.90;;;;;;4998561;28;20041;-79
2023/04/11 08:16:05;;;;;;;24.98;22.48;;;8.40;99.90;;;;;;4992869;28;20058;-80
2023/04/11 08:18:32;;;;;;;23.52;21.40;;;8.70;99.90;;;;;;5016365;28;20046;-79
2023/04/11 08:20:59;;;;;;;26.65;23.85;;;8.80;99.90;;;;;;5011924;28;20158;-81
2023/04/11 08:23:26;;;;;;;27.55;25.20;;;8.90;99.90;;;;;;4984837;28;20042;-80
2023/04/11 08:25:52;;;;;;;28.15;25.17;;;8.80;99.90;;;;;;5015719;28;20045;-81
2023/04/11 08:28:19;;;;;;;26.63;24.00;;;8.60;99.90;;;;;;5013318;28;20045;-80
2023/04/11 08:30:46;;;;;;;33.22;23.48;;;8.60;99.90;;;;;;5010434;28;20073;-79
2023/04/11 08:33:14;;;;;;;25.42;23.27;;;8.70;99.90;;;;;;5016545;28;20558;-81
2023/04/11 08:35:41;;;;;;;28.52;26.10;;;8.80;99.90;;;;;;4999300;28;20117;-80
2023/04/11 08:38:09;;;;;;;28.42;25.73;;;8.90;99.90;;;;;;4997998;28;20045;-80
2023/04/11 08:40:36;;;;;;;28.27;25.33;;;9.40;99.90;;;;;;4999148;28;20052;-78
2023/04/11 08:43:08;;;;;;;26.13;23.92;;;9.40;99.90;;;;;;4999196;28;20136;-78
2023/04/11 08:45:35;;;;;;;29.85;26.73;;;9.20;99.90;;;;;;4979310;28;20045;-80
2023/04/11 08:48:02;;;;;;;27.30;25.05;;;9.20;99.90;;;;;;5000667;28;20124;-78
2023/04/11 08:50:28;;;;;;;29.00;26.63;;;9.30;99.90;;;;;;4983015;28;20050;-78
2023/04/11 08:52:58;;;;;;;30.35;26.95;;;9.00;99.90;;;;;;5009950;28;20050;-78
2023/04/11 08:55:25;;;;;;;29.38;26.77;;;8.90;99.90;;;;;;5000657;28;20524;-79
2023/04/11 08:57:53;;;;;;;28.52;26.25;;;9.10;99.90;;;;;;4998581;28;20045;-78
2023/04/11 09:00:23;;;;;;;28.35;25.90;;;9.00;99.90;;;;;;4983882;28;20042;-78
2023/04/11 09:03:00;;;;;;;29.33;27.27;;;8.90;99.90;;;;;;4999712;28;20061;-78
2023/04/11 09:05:34;;;;;;;30.35;27.48;;;9.10;99.90;;;;;;5014688;28;20455;-78
2023/04/11 09:08:07;;;;;;;27.67;25.40;;;9.00;99.90;;;;;;4998815;28;20073;-78
2023/04/11 09:10:36;;;;;;;27.70;24.85;;;9.20;99.90;;;;;;4999875;28;20046;-78
2023/04/11 09:13:19;;;;;;;26.98;24.75;;;9.60;99.90;;;;;;5021801;28;20045;-77
2023/04/11 09:15:46;;;;;;;27.23;24.95;;;9.60;99.90;;;;;;5016609;28;20545;-78
2023/04/11 09:18:32;;;;;;;31.75;29.08;;;9.60;99.90;;;;;;5019123;28;20034;-80
2023/04/11 09:21:00;;;;;;;25.35;23.55;;;9.60;99.90;;;;;;5015790;28;20054;-78
2023/04/11 09:23:27;;;;;;;27.15;24.90;;;9.90;99.90;;;;;;5019697;28;20048;-78
2023/04/11 09:25:54;;;;;;;25.50;23.50;;;10.40;99.90;;;;;;4996486;28;20133;-78
2023/04/11 09:28:21;;;;;;;26.95;24.75;;;10.30;99.90;;;;;;4999539;28;20041;-77
2023/04/11 09:30:50;;;;;;;27.98;25.77;;;9.70;99.90;;;;;;5000707;28;20050;-77
2023/04/11 09:33:21;;;;;;;27.73;25.88;;;9.20;99.90;;;;;;4992759;28;20082;-78
2023/04/11 09:35:50;;;;;;;27.27;25.23;;;9.10;99.90;;;;;;5014191;28;20647;-78
2023/04/11 09:38:32;;;;;;;27.52;25.55;;;9.60;99.90;;;;;;5001617;28;20132;-79
2023/04/11 09:41:03;;;;;;;28.33;26.25;;;10.00;99.90;;;;;;4997285;28;20128;-77
2023/04/11 09:43:54;;;;;;;28.38;26.30;;;10.40;99.90;;;;;;4973960;28;20683;-78
2023/04/11 09:46:21;;;;;;;29.30;27.08;;;10.30;99.90;;;;;;4986518;28;20043;-77
2023/04/11 09:48:49;;;;;;;29.08;26.75;;;10.30;99.90;;;;;;4969788;28;20089;-77
2023/04/11 09:51:17;;;;;;;30.35;28.00;;;10.70;99.90;;;;;;4986329;28;20030;-77
2023/04/11 09:54:02;;;;;;;28.92;26.77;;;11.00;99.90;;;;;;4999201;28;20100;-77
2023/04/11 09:56:30;;;;;;;30.80;28.63;;;10.80;99.90;;;;;;5013556;28;20049;-78
2023/04/11 09:58:59;;;;;;;31.50;29.27;;;10.80;99.90;;;;;;4993988;28;20044;-76
2023/04/11 10:01:26;;;;;;;26.80;24.63;;;11.10;99.90;;;;;;5013616;28;20088;-77
2023/04/11 10:03:54;;;;;;;28.05;25.65;;;11.60;99.90;;;;;;4998631;28;20628;-76
2023/04/11 10:06:33;;;;;;;28.90;26.27;;;11.50;99.90;;;;;;5000830;28;20030;-77
2023/04/11 10:09:09;;;;;;;26.02;24.02;;;10.80;99.90;;;;;;5002123;28;20066;-77
2023/04/11 10:11:40;;;;;;;26.15;23.85;;;10.20;99.90;;;;;;4996580;28;20046;-77
2023/04/11 10:14:06;;;;;;;27.25;25.05;;;9.80;99.90;;;;;;5016401;28;20049;-77
2023/04/11 10:16:33;;;;;;;25.88;23.77;;;9.70;99.90;;;;;;5013864;28;20040;-77
2023/04/11 10:19:00;;;;;;;30.23;27.88;;;9.90;99.90;;;;;;4997692;28;20233;-76
2023/04/11 10:21:31;;;;;;;30.30;27.95;;;10.10;99.90;;;;;;4998788;28;20132;-76
2023/04/11 10:24:14;;;;;;;28.70;26.20;;;10.60;99.90;;;;;;4998726;28;20041;-76
2023/04/11 10:26:52;;;;;;;27.27;25.15;;;10.40;99.90;;;;;;4979652;28;20045;-76
2023/04/11 10:29:40;;;;;;;26.10;23.65;;;10.10;99.90;;;;;;4995837;28;20073;-79
2023/04/11 10:32:18;;;;;;;25.33;23.08;;;9.70;99.90;;;;;;4996919;28;20531;-76
2023/04/11 10:34:54;;;;;;;23.20;21.30;;;8.30;99.90;;;;;;4999585;28;20558;-76
2023/04/11 10:37:35;;;;;;;21.50;19.55;;;7.50;99.90;;;;;;5008928;28;20104;-77
2023/04/11 10:40:11;;;;;;;21.02;18.75;;;7.00;99.90;;;;;;4997946;28;20049;-77
2023/04/11 10:42:42;;;;;;;17.60;14.40;;;6.80;99.90;;;;;;5013918;28;20038;-77
2023/04/11 10:45:25;;;;;;;13.77;12.63;;;6.60;99.90;;;;;;5009874;28;20038;-78
2023/04/11 10:48:00;;;;;;;13.02;11.85;;;6.30;99.90;;;;;;4980732;28;20668;-77
2023/04/11 10:50:30;;;;;;;9.73;8.57;;;6.10;99.90;;;;;;4995545;28;20125;-77
2023/04/11 10:52:59;;;;;;;11.85;9.40;;;6.00;99.90;;;;;;5007307;28;20420;-77
2023/04/11 10:55:28;;;;;;;11.70;8.48;;;5.90;99.90;;;;;;4979752;28;20321;-77
2023/04/11 10:58:07;;;;;;;8.80;7.38;;;5.90;99.90;;;;;;4980000;28;20042;-77
2023/04/11 11:00:46;;;;;;;9.05;6.88;;;5.90;99.90;;;;;;5015798;28;20050;-77
2023/04/11 11:03:18;;;;;;;11.43;8.38;;;5.90;99.90;;;;;;5011532;28;20050;-78
2023/04/11 11:05:46;;;;;;;11.77;8.35;;;6.10;99.90;;;;;;5014238;28;20107;-78
2023/04/11 11:08:13;;;;;;;9.63;7.50;;;6.60;99.90;;;;;;4999326;28;20041;-77
2023/04/11 11:10:42;;;;;;;12.40;11.05;;;7.10;99.90;;;;;;5013404;28;20042;-78
2023/04/11 11:13:09;;;;;;;14.57;13.07;;;7.60;99.90;;;;;;4985067;28;20061;-78
2023/04/11 11:15:37;;;;;;;17.20;15.55;;;8.10;99.90;;;;;;4996022;28;20056;-78
2023/04/11 11:18:07;;;;;;;17.90;16.33;;;8.40;99.90;;;;;;4999278;28;20056;-79
2023/04/11 11:20:36;;;;;;;19.98;15.70;;;8.70;99.90;;;;;;4982093;28;20041;-77
2023/04/11 11:23:05;;;;;;;19.40;18.00;;;8.90;99.90;;;;;;4987018;28;20202;-78
2023/04/11 11:25:32;;;;;;;25.00;22.80;;;8.90;99.90;;;;;;5000916;28;20133;-77
2023/04/11 11:28:07;;;;;;;24.65;22.75;;;8.80;99.90;;;;;;5005885;28;20038;-77
2023/04/11 11:30:35;;;;;;;22.90;20.27;;;8.60;99.90;;;;;;5009346;28;20132;-79
2023/04/11 11:33:22;;;;;;;22.08;20.20;;;8.60;99.90;;;;;;4994485;28;20129;-79
2023/04/11 11:35:57;;;;;;;24.38;21.92;;;8.40;99.90;;;;;;4996723;28;20046;-77
2023/04/11 11:38:29;;;;;;;23.67;21.98;;;8.50;99.90;;;;;;5001362;28;20547;-77
2023/04/11 11:40:57;;;;;;;24.00;21.73;;;8.90;99.90;;;;;;4984461;28;20117;-77
2023/04/11 11:43:26;;;;;;;28.30;25.92;;;9.40;99.90;;;;;;5001114;28;20069;-77
2023/04/11 11:46:12;;;;;;;24.83;22.88;;;9.60;99.90;;;;;;4979078;28;20141;-78
2023/04/11 11:48:58;;;;;;;34.65;31.20;;;9.90;99.90;;;;;;4999846;28;20048;-77
2023/04/11 11:51:25;;;;;;;27.60;25.05;;;10.10;99.90;;;;;;5012225;28;20053;-78
2023/04/11 11:54:09;;;;;;;37.00;34.67;;;10.50;99.90;;;;;;5008772;28;20053;-78
2023/04/11 11:56:37;;;;;;;33.70;31.65;;;10.60;99.90;;;;;;4978227;28;20048;-79
2023/04/11 11:59:04;;;;;;;34.05;31.42;;;10.50;99.90;;;;;;4999008;28;20056;-79
2023/04/11 12:01:33;;;;;;;36.05;33.00;;;10.40;99.90;;;;;;5001422;28;20081;-79
2023/04/11 12:04:00;;;;;;;36.05;33.45;;;10.10;99.90;;;;;;5017885;28;20065;-78
2023/04/11 12:06:32;;;;;;;40.13;36.63;;;10.10;99.90;;;;;;5000527;28;20092;-79
2023/04/11 12:09:09;;;;;;;37.72;35.28;;;10.30;99.90;;;;;;4989826;28;20104;-79
2023/04/11 12:11:37;;;;;;;41.05;38.33;;;10.80;99.90;;;;;;5013512;28;20054;-79
2023/04/11 12:14:04;;;;;;;39.95;37.50;;;11.00;99.90;;;;;;5015578;28;20042;-79
2023/04/11 12:16:31;;;;;;;39.60;36.88;;;11.20;99.90;;;;;;5008459;28;20048;-78
2023/04/11 12:19:01;;;;;;;38.17;35.60;;;11.30;99.90;;;;;;4995408;28;20080;-78
2023/04/11 12:21:29;;;;;;;36.33;33.53;;;11.40;99.90;;;;;;5004858;28;20133;-78
2023/04/11 12:23:56;;;;;;;35.20;32.40;;;11.20;99.90;;;;;;5021539;28;20665;-78
2023/04/11 12:26:24;;;;;;;35.88;32.97;;;11.20;99.90;;;;;;5018903;28;20053;-78
2023/04/11 12:28:51;;;;;;;37.58;34.53;;;10.90;99.90;;;;;;5005763;28;20049;-79
2023/04/11 12:31:19;;;;;;;35.33;32.80;;;10.80;99.90;;;;;;5003843;28;20168;-77
2023/04/11 12:33:46;;;;;;;34.28;31.50;;;11.00;99.90;;;;;;5000219;28;20042;-77
2023/04/11 12:36:12;;;;;;;44.55;41.28;;;11.00;99.90;;;;;;5002520;28;20129;-80
2023/04/11 12:38:39;;;;;;;37.97;34.90;;;10.70;99.90;;;;;;5017099;28;20099;-76
2023/04/11 12:41:07;;;;;;;39.83;37.20;;;10.80;99.90;;;;;;5000957;28;20052;-78
2023/04/11 12:43:53;;;;;;;37.15;34.22;;;11.10;99.90;;;;;;5002069;28;20133;-78
2023/04/11 12:46:20;;;;;;;36.28;33.45;;;11.50;99.90;;;;;;5017755;28;20582;-77
2023/04/11 12:48:47;;;;;;;37.72;34.50;;;11.60;99.90;;;;;;5003403;28;20053;-78
2023/04/11 12:51:14;;;;;;;35.20;32.35;;;11.50;99.90;;;;;;4997851;28;20049;-77